sensor_id;sensor_type;location;lat;lon;timestamp;P1;durP1;ratioP1;P2;durP2;ratioP2
3487;SDS011;38546;48.170;11.724;2024-01-15T00:01:10;11.93;;;6.23;;
3487;SDS011;38546;48.170;11.724;2024-01-15T00:03:41;9.20;;;5.90;;
3487;SDS011;38546;48.170;11.724;2024-01-15T00:06:12;12.10;;;7.00;;
3487;SDS011;38546;48.170;11.724;2024-01-15T00:08:45;11.80;;;6.27;;
3487;SDS011;38546;48.170;11.724;2024-01-15T00:11:16;10.83;;;6.30;;
3487;SDS011;38546;48.170;11.724;2024-01-15T00:14:01;11.20;;;6.03;;
3487;SDS011;38546;48.170;11.724;2024-01-15T00:16:33;12.13;;;7.10;;
3487;SDS011;38546;48.170;11.724;2024-01-15T00:19:04;11.60;;;6.87;;
3487;SDS011;38546;48.170;11.724;2024-01-15T00:21:34;12.07;;;7.07;;
3487;SDS011;38546;48.170;11.724;2024-01-15T00:24:05;11.83;;;7.27;;
3487;SDS011;38546;48.170;11.724;2024-01-15T00:26:36;12.30;;;6.60;;
3487;SDS011;38546;48.170;11.724;2024-01-15T00:29:07;10.70;;;6.60;;
3487;SDS011;38546;48.170;11.724;2024-01-15T00:31:39;17.23;;;8.27;;
3487;SDS011;38546;48.170;11.724;2024-01-15T00:34:10;18.10;;;7.03;;
3487;SDS011;38546;48.170;11.724;2024-01-15T00:36:40;13.13;;;7.77;;
3487;SDS011;38546;48.170;11.724;2024-01-15T00:39:11;15.47;;;6.73;;
3487;SDS011;38546;48.170;11.724;2024-01-15T00:41:42;14.03;;;8.50;;
3487;SDS011;38546;48.170;11.724;2024-01-15T00:44:12;16.03;;;8.47;;
3487;SDS011;38546;48.170;11.724;2024-01-15T00:46:44;14.93;;;8.13;;
3487;SDS011;38546;48.170;11.724;2024-01-15T00:49:15;16.03;;;8.20;;
3487;SDS011;38546;48.170;11.724;2024-01-15T00:51:47;19.83;;;8.90;;
3487;SDS011;38546;48.170;11.724;2024-01-15T00:54:18;11.27;;;7.47;;
3487;SDS011;38546;48.170;11.724;2024-01-15T00:56:48;17.83;;;9.30;;
3487;SDS011;38546;48.170;11.724;2024-01-15T00:59:19;16.37;;;8.80;;
3487;SDS011;38546;48.170;11.724;2024-01-15T01:01:52;20.30;;;9.40;;
3487;SDS011;38546;48.170;11.724;2024-01-15T01:04:23;21.90;;;10.00;;
3487;SDS011;38546;48.170;11.724;2024-01-15T01:06:54;21.23;;;11.70;;
3487;SDS011;38546;48.170;11.724;2024-01-15T01:09:24;26.57;;;10.93;;
3487;SDS011;38546;48.170;11.724;2024-01-15T01:11:56;25.50;;;11.13;;
3487;SDS011;38546;48.170;11.724;2024-01-15T01:14:26;24.60;;;12.57;;
3487;SDS011;38546;48.170;11.724;2024-01-15T01:16:57;22.63;;;10.90;;
3487;SDS011;38546;48.170;11.724;2024-01-15T01:19:28;26.60;;;12.13;;
3487;SDS011;38546;48.170;11.724;2024-01-15T01:21:58;23.20;;;12.47;;
3487;SDS011;38546;48.170;11.724;2024-01-15T01:24:29;23.27;;;11.53;;
3487;SDS011;38546;48.170;11.724;2024-01-15T01:27:00;19.03;;;10.47;;
3487;SDS011;38546;48.170;11.724;2024-01-15T01:29:30;24.20;;;10.87;;
3487;SDS011;38546;48.170;11.724;2024-01-15T01:32:01;17.70;;;9.80;;
3487;SDS011;38546;48.170;11.724;2024-01-15T01:34:32;21.70;;;9.53;;
3487;SDS011;38546;48.170;11.724;2024-01-15T01:37:11;15.33;;;8.87;;
3487;SDS011;38546;48.170;11.724;2024-01-15T01:39:43;18.17;;;9.00;;
3487;SDS011;38546;48.170;11.724;2024-01-15T01:42:15;17.60;;;9.67;;
3487;SDS011;38546;48.170;11.724;2024-01-15T01:44:48;18.70;;;7.97;;
3487;SDS011;38546;48.170;11.724;2024-01-15T01:47:19;16.77;;;9.07;;
3487;SDS011;38546;48.170;11.724;2024-01-15T01:49:49;19.73;;;9.20;;
3487;SDS011;38546;48.170;11.724;2024-01-15T01:52:20;15.13;;;8.53;;
3487;SDS011;38546;48.170;11.724;2024-01-15T01:54:51;16.80;;;8.00;;
3487;SDS011;38546;48.170;11.724;2024-01-15T01:57:22;15.93;;;8.20;;
3487;SDS011;38546;48.170;11.724;2024-01-15T01:59:53;15.97;;;8.03;;
3487;SDS011;38546;48.170;11.724;2024-01-15T02:02:25;19.27;;;9.10;;
3487;SDS011;38546;48.170;11.724;2024-01-15T02:04:56;12.73;;;7.33;;
3487;SDS011;38546;48.170;11.724;2024-01-15T02:07:27;12.30;;;6.97;;
3487;SDS011;38546;48.170;11.724;2024-01-15T02:09:59;17.30;;;8.43;;
3487;SDS011;38546;48.170;11.724;2024-01-15T02:12:30;20.90;;;8.40;;
3487;SDS011;38546;48.170;11.724;2024-01-15T02:15:00;19.13;;;8.87;;
3487;SDS011;38546;48.170;11.724;2024-01-15T02:17:32;16.77;;;8.23;;
3487;SDS011;38546;48.170;11.724;2024-01-15T02:20:03;18.93;;;8.93;;
3487;SDS011;38546;48.170;11.724;2024-01-15T02:22:35;13.67;;;8.80;;
3487;SDS011;38546;48.170;11.724;2024-01-15T02:25:08;16.97;;;9.00;;
3487;SDS011;38546;48.170;11.724;2024-01-15T02:27:39;12.63;;;6.90;;
3487;SDS011;38546;48.170;11.724;2024-01-15T02:30:11;14.30;;;8.70;;
3487;SDS011;38546;48.170;11.724;2024-01-15T02:32:42;16.90;;;8.50;;
3487;SDS011;38546;48.170;11.724;2024-01-15T02:35:13;14.37;;;7.67;;
3487;SDS011;38546;48.170;11.724;2024-01-15T02:37:44;17.80;;;8.17;;
3487;SDS011;38546;48.170;11.724;2024-01-15T02:40:15;16.10;;;8.40;;
3487;SDS011;38546;48.170;11.724;2024-01-15T02:42:48;14.60;;;7.87;;
3487;SDS011;38546;48.170;11.724;2024-01-15T02:45:19;16.07;;;7.70;;
3487;SDS011;38546;48.170;11.724;2024-01-15T02:47:51;18.80;;;8.83;;
3487;SDS011;38546;48.170;11.724;2024-01-15T02:50:22;16.40;;;7.43;;
3487;SDS011;38546;48.170;11.724;2024-01-15T02:52:52;16.00;;;7.83;;
3487;SDS011;38546;48.170;11.724;2024-01-15T02:55:23;14.00;;;7.97;;
3487;SDS011;38546;48.170;11.724;2024-01-15T02:57:54;17.90;;;8.47;;
3487;SDS011;38546;48.170;11.724;2024-01-15T03:00:25;20.70;;;9.53;;
3487;SDS011;38546;48.170;11.724;2024-01-15T03:02:55;23.07;;;8.83;;
3487;SDS011;38546;48.170;11.724;2024-01-15T03:05:26;19.37;;;9.17;;
3487;SDS011;38546;48.170;11.724;2024-01-15T03:07:57;15.83;;;8.67;;
3487;SDS011;38546;48.170;11.724;2024-01-15T03:10:27;17.53;;;7.97;;
3487;SDS011;38546;48.170;11.724;2024-01-15T03:12:58;17.20;;;7.83;;
3487;SDS011;38546;48.170;11.724;2024-01-15T03:15:29;14.93;;;8.60;;
3487;SDS011;38546;48.170;11.724;2024-01-15T03:17:59;14.53;;;8.00;;
3487;SDS011;38546;48.170;11.724;2024-01-15T03:20:30;16.17;;;8.67;;
3487;SDS011;38546;48.170;11.724;2024-01-15T03:23:01;18.40;;;8.53;;
3487;SDS011;38546;48.170;11.724;2024-01-15T03:25:31;19.90;;;8.77;;
3487;SDS011;38546;48.170;11.724;2024-01-15T03:28:04;17.63;;;8.43;;
3487;SDS011;38546;48.170;11.724;2024-01-15T03:30:35;16.30;;;9.07;;
3487;SDS011;38546;48.170;11.724;2024-01-15T03:33:06;14.27;;;8.43;;
3487;SDS011;38546;48.170;11.724;2024-01-15T03:35:37;13.93;;;8.23;;
3487;SDS011;38546;48.170;11.724;2024-01-15T03:38:07;15.90;;;9.70;;
3487;SDS011;38546;48.170;11.724;2024-01-15T03:40:38;15.23;;;8.07;;
3487;SDS011;38546;48.170;11.724;2024-01-15T03:43:11;21.80;;;8.27;;
3487;SDS011;38546;48.170;11.724;2024-01-15T03:45:42;20.13;;;8.73;;
3487;SDS011;38546;48.170;11.724;2024-01-15T03:48:12;17.87;;;8.97;;
3487;SDS011;38546;48.170;11.724;2024-01-15T03:50:43;14.93;;;8.73;;
3487;SDS011;38546;48.170;11.724;2024-01-15T03:53:17;17.20;;;7.70;;
3487;SDS011;38546;48.170;11.724;2024-01-15T03:55:47;18.13;;;10.40;;
3487;SDS011;38546;48.170;11.724;2024-01-15T03:58:19;15.37;;;9.37;;
3487;SDS011;38546;48.170;11.724;2024-01-15T04:00:50;20.73;;;7.60;;
3487;SDS011;38546;48.170;11.724;2024-01-15T04:03:21;19.83;;;8.33;;
3487;SDS011;38546;48.170;11.724;2024-01-15T04:05:51;17.90;;;7.87;;
3487;SDS011;38546;48.170;11.724;2024-01-15T04:08:22;13.87;;;8.50;;
3487;SDS011;38546;48.170;11.724;2024-01-15T04:10:52;17.20;;;8.07;;
3487;SDS011;38546;48.170;11.724;2024-01-15T04:13:23;15.90;;;7.67;;
3487;SDS011;38546;48.170;11.724;2024-01-15T04:15:54;16.77;;;8.57;;
3487;SDS011;38546;48.170;11.724;2024-01-15T04:18:25;17.67;;;9.10;;
3487;SDS011;38546;48.170;11.724;2024-01-15T04:20:55;15.93;;;8.27;;
3487;SDS011;38546;48.170;11.724;2024-01-15T04:23:27;13.30;;;7.20;;
3487;SDS011;38546;48.170;11.724;2024-01-15T04:25:58;13.97;;;7.60;;
3487;SDS011;38546;48.170;11.724;2024-01-15T04:28:28;13.17;;;8.43;;
3487;SDS011;38546;48.170;11.724;2024-01-15T04:30:59;14.73;;;8.13;;
3487;SDS011;38546;48.170;11.724;2024-01-15T04:33:33;13.17;;;7.10;;
3487;SDS011;38546;48.170;11.724;2024-01-15T04:36:04;13.10;;;7.67;;
3487;SDS011;38546;48.170;11.724;2024-01-15T04:38:38;16.60;;;9.20;;
3487;SDS011;38546;48.170;11.724;2024-01-15T04:41:10;16.20;;;8.20;;
3487;SDS011;38546;48.170;11.724;2024-01-15T04:43:43;13.10;;;7.97;;
3487;SDS011;38546;48.170;11.724;2024-01-15T04:46:13;14.03;;;7.00;;
3487;SDS011;38546;48.170;11.724;2024-01-15T04:48:44;15.50;;;8.77;;
3487;SDS011;38546;48.170;11.724;2024-01-15T04:51:15;20.13;;;9.40;;
3487;SDS011;38546;48.170;11.724;2024-01-15T04:53:46;16.77;;;8.03;;
3487;SDS011;38546;48.170;11.724;2024-01-15T04:56:16;15.93;;;8.10;;
3487;SDS011;38546;48.170;11.724;2024-01-15T04:58:48;16.70;;;7.57;;
3487;SDS011;38546;48.170;11.724;2024-01-15T05:01:18;16.53;;;7.57;;
3487;SDS011;38546;48.170;11.724;2024-01-15T05:03:49;18.40;;;8.10;;
3487;SDS011;38546;48.170;11.724;2024-01-15T05:06:20;16.00;;;7.87;;
3487;SDS011;38546;48.170;11.724;2024-01-15T05:08:50;14.63;;;7.10;;
3487;SDS011;38546;48.170;11.724;2024-01-15T05:11:21;14.67;;;7.00;;
3487;SDS011;38546;48.170;11.724;2024-01-15T05:13:51;13.70;;;7.47;;
3487;SDS011;38546;48.170;11.724;2024-01-15T05:16:22;9.67;;;6.70;;
3487;SDS011;38546;48.170;11.724;2024-01-15T05:18:53;15.50;;;8.07;;
3487;SDS011;38546;48.170;11.724;2024-01-15T05:21:24;11.00;;;7.77;;
3487;SDS011;38546;48.170;11.724;2024-01-15T05:23:54;16.60;;;8.60;;
3487;SDS011;38546;48.170;11.724;2024-01-15T05:26:25;16.73;;;7.97;;
3487;SDS011;38546;48.170;11.724;2024-01-15T05:28:56;16.50;;;7.80;;
3487;SDS011;38546;48.170;11.724;2024-01-15T05:31:26;14.80;;;7.97;;
3487;SDS011;38546;48.170;11.724;2024-01-15T05:33:57;18.13;;;7.43;;
3487;SDS011;38546;48.170;11.724;2024-01-15T05:36:28;14.30;;;7.27;;
3487;SDS011;38546;48.170;11.724;2024-01-15T05:38:58;15.07;;;7.47;;
3487;SDS011;38546;48.170;11.724;2024-01-15T05:41:29;10.43;;;7.67;;
3487;SDS011;38546;48.170;11.724;2024-01-15T05:44:00;9.67;;;6.47;;
3487;SDS011;38546;48.170;11.724;2024-01-15T05:46:30;18.50;;;8.37;;
3487;SDS011;38546;48.170;11.724;2024-01-15T05:49:01;15.13;;;6.73;;
3487;SDS011;38546;48.170;11.724;2024-01-15T05:51:32;14.27;;;6.67;;
3487;SDS011;38546;48.170;11.724;2024-01-15T05:54:04;12.43;;;6.70;;
3487;SDS011;38546;48.170;11.724;2024-01-15T05:56:34;11.20;;;6.57;;
3487;SDS011;38546;48.170;11.724;2024-01-15T05:59:05;8.60;;;5.80;;
3487;SDS011;38546;48.170;11.724;2024-01-15T06:01:36;13.20;;;7.33;;
3487;SDS011;38546;48.170;11.724;2024-01-15T06:04:08;12.77;;;7.37;;
3487;SDS011;38546;48.170;11.724;2024-01-15T06:06:38;15.57;;;6.93;;
3487;SDS011;38546;48.170;11.724;2024-01-15T06:09:09;10.70;;;6.53;;
3487;SDS011;38546;48.170;11.724;2024-01-15T06:11:40;11.83;;;6.70;;
3487;SDS011;38546;48.170;11.724;2024-01-15T06:14:10;13.37;;;7.20;;
3487;SDS011;38546;48.170;11.724;2024-01-15T06:16:41;15.30;;;6.37;;
3487;SDS011;38546;48.170;11.724;2024-01-15T06:19:12;13.70;;;6.90;;
3487;SDS011;38546;48.170;11.724;2024-01-15T06:21:43;16.63;;;6.57;;
3487;SDS011;38546;48.170;11.724;2024-01-15T06:24:13;11.53;;;5.80;;
3487;SDS011;38546;48.170;11.724;2024-01-15T06:26:46;11.37;;;6.67;;
3487;SDS011;38546;48.170;11.724;2024-01-15T06:29:17;12.03;;;6.70;;
3487;SDS011;38546;48.170;11.724;2024-01-15T06:31:48;9.90;;;6.37;;
3487;SDS011;38546;48.170;11.724;2024-01-15T06:34:18;10.17;;;6.67;;
3487;SDS011;38546;48.170;11.724;2024-01-15T06:36:49;8.90;;;5.50;;
3487;SDS011;38546;48.170;11.724;2024-01-15T06:39:20;11.77;;;5.50;;
3487;SDS011;38546;48.170;11.724;2024-01-15T06:41:50;10.50;;;5.27;;
3487;SDS011;38546;48.170;11.724;2024-01-15T06:44:21;6.93;;;5.17;;
3487;SDS011;38546;48.170;11.724;2024-01-15T06:46:54;11.40;;;7.20;;
3487;SDS011;38546;48.170;11.724;2024-01-15T06:49:27;8.47;;;5.67;;
3487;SDS011;38546;48.170;11.724;2024-01-15T06:51:59;10.80;;;5.53;;
3487;SDS011;38546;48.170;11.724;2024-01-15T06:54:29;14.80;;;6.50;;
3487;SDS011;38546;48.170;11.724;2024-01-15T06:57:00;12.23;;;6.13;;
3487;SDS011;38546;48.170;11.724;2024-01-15T06:59:31;7.47;;;5.10;;
3487;SDS011;38546;48.170;11.724;2024-01-15T07:02:01;8.90;;;5.40;;
3487;SDS011;38546;48.170;11.724;2024-01-15T07:04:33;10.27;;;6.23;;
3487;SDS011;38546;48.170;11.724;2024-01-15T07:07:03;10.77;;;6.50;;
3487;SDS011;38546;48.170;11.724;2024-01-15T07:09:34;12.83;;;5.57;;
3487;SDS011;38546;48.170;11.724;2024-01-15T07:12:05;12.17;;;5.57;;
3487;SDS011;38546;48.170;11.724;2024-01-15T07:14:35;9.77;;;6.10;;
3487;SDS011;38546;48.170;11.724;2024-01-15T07:17:06;7.57;;;5.13;;
3487;SDS011;38546;48.170;11.724;2024-01-15T07:19:37;12.20;;;5.97;;
3487;SDS011;38546;48.170;11.724;2024-01-15T07:22:07;13.17;;;5.83;;
3487;SDS011;38546;48.170;11.724;2024-01-15T07:24:38;12.97;;;5.50;;
3487;SDS011;38546;48.170;11.724;2024-01-15T07:27:09;12.37;;;6.43;;
3487;SDS011;38546;48.170;11.724;2024-01-15T07:29:39;9.40;;;6.67;;
3487;SDS011;38546;48.170;11.724;2024-01-15T07:32:10;13.27;;;6.37;;
3487;SDS011;38546;48.170;11.724;2024-01-15T07:34:41;8.93;;;5.93;;
3487;SDS011;38546;48.170;11.724;2024-01-15T07:37:11;11.53;;;6.87;;
3487;SDS011;38546;48.170;11.724;2024-01-15T07:39:42;8.60;;;5.47;;
3487;SDS011;38546;48.170;11.724;2024-01-15T07:42:12;7.37;;;5.00;;
3487;SDS011;38546;48.170;11.724;2024-01-15T07:44:43;8.93;;;5.70;;
3487;SDS011;38546;48.170;11.724;2024-01-15T07:47:15;13.60;;;7.13;;
3487;SDS011;38546;48.170;11.724;2024-01-15T07:49:45;10.57;;;6.40;;
3487;SDS011;38546;48.170;11.724;2024-01-15T07:52:16;12.37;;;6.33;;
3487;SDS011;38546;48.170;11.724;2024-01-15T07:54:46;14.73;;;7.23;;
3487;SDS011;38546;48.170;11.724;2024-01-15T07:57:17;15.37;;;6.70;;
3487;SDS011;38546;48.170;11.724;2024-01-15T07:59:48;11.90;;;6.93;;
3487;SDS011;38546;48.170;11.724;2024-01-15T08:02:18;10.97;;;7.00;;
3487;SDS011;38546;48.170;11.724;2024-01-15T08:04:49;10.77;;;6.30;;
3487;SDS011;38546;48.170;11.724;2024-01-15T08:07:20;12.10;;;6.83;;
3487;SDS011;38546;48.170;11.724;2024-01-15T08:09:51;11.17;;;6.73;;
3487;SDS011;38546;48.170;11.724;2024-01-15T08:12:23;14.60;;;6.97;;
3487;SDS011;38546;48.170;11.724;2024-01-15T08:14:53;20.73;;;7.80;;
3487;SDS011;38546;48.170;11.724;2024-01-15T08:17:24;12.50;;;7.10;;
3487;SDS011;38546;48.170;11.724;2024-01-15T08:19:58;17.87;;;7.40;;
3487;SDS011;38546;48.170;11.724;2024-01-15T08:22:30;17.17;;;8.37;;
3487;SDS011;38546;48.170;11.724;2024-01-15T08:25:01;14.37;;;7.57;;
3487;SDS011;38546;48.170;11.724;2024-01-15T08:27:31;8.20;;;5.97;;
3487;SDS011;38546;48.170;11.724;2024-01-15T08:30:02;16.00;;;7.53;;
3487;SDS011;38546;48.170;11.724;2024-01-15T08:32:34;19.90;;;6.67;;
3487;SDS011;38546;48.170;11.724;2024-01-15T08:35:10;12.37;;;7.47;;
3487;SDS011;38546;48.170;11.724;2024-01-15T08:37:41;15.30;;;8.17;;
3487;SDS011;38546;48.170;11.724;2024-01-15T08:40:12;14.23;;;7.40;;
3487;SDS011;38546;48.170;11.724;2024-01-15T08:42:43;13.13;;;6.73;;
3487;SDS011;38546;48.170;11.724;2024-01-15T08:45:15;15.47;;;7.30;;
3487;SDS011;38546;48.170;11.724;2024-01-15T08:47:46;13.87;;;7.40;;
3487;SDS011;38546;48.170;11.724;2024-01-15T08:50:16;14.47;;;6.83;;
3487;SDS011;38546;48.170;11.724;2024-01-15T08:52:47;14.83;;;7.23;;
3487;SDS011;38546;48.170;11.724;2024-01-15T08:55:18;12.33;;;7.43;;
3487;SDS011;38546;48.170;11.724;2024-01-15T08:57:49;12.17;;;6.23;;
3487;SDS011;38546;48.170;11.724;2024-01-15T09:00:20;13.37;;;6.80;;
3487;SDS011;38546;48.170;11.724;2024-01-15T09:02:51;9.67;;;6.03;;
3487;SDS011;38546;48.170;11.724;2024-01-15T09:05:22;10.87;;;6.50;;
3487;SDS011;38546;48.170;11.724;2024-01-15T09:07:52;10.83;;;6.00;;
3487;SDS011;38546;48.170;11.724;2024-01-15T09:10:24;9.20;;;5.47;;
3487;SDS011;38546;48.170;11.724;2024-01-15T09:12:54;11.50;;;5.97;;
3487;SDS011;38546;48.170;11.724;2024-01-15T09:15:25;12.03;;;6.67;;
3487;SDS011;38546;48.170;11.724;2024-01-15T09:17:56;9.50;;;5.87;;
3487;SDS011;38546;48.170;11.724;2024-01-15T09:20:28;12.70;;;6.67;;
3487;SDS011;38546;48.170;11.724;2024-01-15T09:22:59;10.37;;;6.70;;
3487;SDS011;38546;48.170;11.724;2024-01-15T09:25:30;14.83;;;5.97;;
3487;SDS011;38546;48.170;11.724;2024-01-15T09:28:00;8.93;;;6.33;;
3487;SDS011;38546;48.170;11.724;2024-01-15T09:30:32;11.03;;;6.43;;
3487;SDS011;38546;48.170;11.724;2024-01-15T09:33:02;12.47;;;6.67;;
3487;SDS011;38546;48.170;11.724;2024-01-15T09:35:33;12.33;;;7.70;;
3487;SDS011;38546;48.170;11.724;2024-01-15T09:38:04;12.70;;;8.13;;
3487;SDS011;38546;48.170;11.724;2024-01-15T09:40:35;9.77;;;6.10;;
3487;SDS011;38546;48.170;11.724;2024-01-15T09:43:09;15.07;;;7.70;;
3487;SDS011;38546;48.170;11.724;2024-01-15T09:45:40;14.03;;;6.47;;
3487;SDS011;38546;48.170;11.724;2024-01-15T09:48:13;11.87;;;7.20;;
3487;SDS011;38546;48.170;11.724;2024-01-15T09:50:44;12.60;;;6.93;;
3487;SDS011;38546;48.170;11.724;2024-01-15T09:53:16;11.97;;;7.40;;
3487;SDS011;38546;48.170;11.724;2024-01-15T09:55:49;10.77;;;6.40;;
3487;SDS011;38546;48.170;11.724;2024-01-15T09:58:20;8.10;;;5.40;;
3487;SDS011;38546;48.170;11.724;2024-01-15T10:00:51;14.47;;;7.00;;
3487;SDS011;38546;48.170;11.724;2024-01-15T10:03:23;8.80;;;5.60;;
3487;SDS011;38546;48.170;11.724;2024-01-15T10:05:54;9.57;;;5.30;;
3487;SDS011;38546;48.170;11.724;2024-01-15T10:08:25;7.60;;;5.20;;
3487;SDS011;38546;48.170;11.724;2024-01-15T10:10:56;9.10;;;5.27;;
3487;SDS011;38546;48.170;11.724;2024-01-15T10:13:26;9.20;;;6.07;;
3487;SDS011;38546;48.170;11.724;2024-01-15T10:16:00;7.00;;;4.97;;
3487;SDS011;38546;48.170;11.724;2024-01-15T10:18:33;10.00;;;5.83;;
3487;SDS011;38546;48.170;11.724;2024-01-15T10:21:03;10.30;;;5.90;;
3487;SDS011;38546;48.170;11.724;2024-01-15T10:23:36;6.73;;;4.87;;
3487;SDS011;38546;48.170;11.724;2024-01-15T10:26:07;9.53;;;5.77;;
3487;SDS011;38546;48.170;11.724;2024-01-15T10:28:38;7.90;;;4.70;;
3487;SDS011;38546;48.170;11.724;2024-01-15T10:31:09;6.77;;;5.40;;
3487;SDS011;38546;48.170;11.724;2024-01-15T10:33:40;9.57;;;5.13;;
3487;SDS011;38546;48.170;11.724;2024-01-15T10:36:11;10.20;;;5.77;;
3487;SDS011;38546;48.170;11.724;2024-01-15T10:38:43;9.20;;;5.40;;
3487;SDS011;38546;48.170;11.724;2024-01-15T10:41:14;11.53;;;6.07;;
3487;SDS011;38546;48.170;11.724;2024-01-15T10:43:46;8.80;;;5.40;;
3487;SDS011;38546;48.170;11.724;2024-01-15T10:46:16;10.87;;;6.53;;
3487;SDS011;38546;48.170;11.724;2024-01-15T10:48:47;8.10;;;5.20;;
3487;SDS011;38546;48.170;11.724;2024-01-15T10:51:18;7.00;;;5.07;;
3487;SDS011;38546;48.170;11.724;2024-01-15T10:53:49;6.50;;;4.87;;
3487;SDS011;38546;48.170;11.724;2024-01-15T10:56:21;6.83;;;4.47;;
3487;SDS011;38546;48.170;11.724;2024-01-15T10:58:53;7.43;;;5.07;;
3487;SDS011;38546;48.170;11.724;2024-01-15T11:01:24;5.87;;;4.97;;
3487;SDS011;38546;48.170;11.724;2024-01-15T11:03:56;6.33;;;4.73;;
3487;SDS011;38546;48.170;11.724;2024-01-15T11:06:27;10.87;;;4.30;;
3487;SDS011;38546;48.170;11.724;2024-01-15T11:08:59;17.30;;;5.00;;
3487;SDS011;38546;48.170;11.724;2024-01-15T11:11:30;10.30;;;4.80;;
3487;SDS011;38546;48.170;11.724;2024-01-15T11:14:06;6.50;;;4.30;;
3487;SDS011;38546;48.170;11.724;2024-01-15T11:16:55;11.00;;;5.30;;
3487;SDS011;38546;48.170;11.724;2024-01-15T11:19:38;8.43;;;4.97;;
3487;SDS011;38546;48.170;11.724;2024-01-15T11:27:09;5.27;;;4.20;;
3487;SDS011;38546;48.170;11.724;2024-01-15T11:29:40;8.00;;;4.97;;
3487;SDS011;38546;48.170;11.724;2024-01-15T11:32:10;7.23;;;4.90;;
3487;SDS011;38546;48.170;11.724;2024-01-15T11:34:55;7.73;;;5.33;;
3487;SDS011;38546;48.170;11.724;2024-01-15T11:37:29;11.53;;;6.00;;
3487;SDS011;38546;48.170;11.724;2024-01-15T11:40:37;11.97;;;5.20;;
3487;SDS011;38546;48.170;11.724;2024-01-15T11:43:08;12.47;;;5.30;;
3487;SDS011;38546;48.170;11.724;2024-01-15T11:45:39;12.23;;;6.20;;
3487;SDS011;38546;48.170;11.724;2024-01-15T11:48:17;8.00;;;4.20;;
3487;SDS011;38546;48.170;11.724;2024-01-15T11:50:48;8.83;;;4.23;;
3487;SDS011;38546;48.170;11.724;2024-01-15T11:53:32;8.27;;;4.80;;
3487;SDS011;38546;48.170;11.724;2024-01-15T11:56:14;6.80;;;4.20;;
3487;SDS011;38546;48.170;11.724;2024-01-15T11:58:49;7.53;;;4.47;;
3487;SDS011;38546;48.170;11.724;2024-01-15T12:01:20;7.63;;;5.40;;
3487;SDS011;38546;48.170;11.724;2024-01-15T12:03:51;5.53;;;4.30;;
3487;SDS011;38546;48.170;11.724;2024-01-15T12:06:22;5.00;;;4.00;;
3487;SDS011;38546;48.170;11.724;2024-01-15T12:09:05;7.83;;;4.80;;
3487;SDS011;38546;48.170;11.724;2024-01-15T12:11:37;8.70;;;4.20;;
3487;SDS011;38546;48.170;11.724;2024-01-15T12:14:13;9.23;;;4.77;;
3487;SDS011;38546;48.170;11.724;2024-01-15T12:16:43;6.27;;;4.40;;
3487;SDS011;38546;48.170;11.724;2024-01-15T12:19:15;5.63;;;4.80;;
3487;SDS011;38546;48.170;11.724;2024-01-15T12:21:46;4.00;;;3.30;;
3487;SDS011;38546;48.170;11.724;2024-01-15T12:24:18;7.03;;;4.37;;
3487;SDS011;38546;48.170;11.724;2024-01-15T12:26:48;9.10;;;4.17;;
3487;SDS011;38546;48.170;11.724;2024-01-15T12:29:19;5.10;;;3.83;;
3487;SDS011;38546;48.170;11.724;2024-01-15T12:31:50;6.17;;;3.70;;
3487;SDS011;38546;48.170;11.724;2024-01-15T12:34:23;5.70;;;3.90;;
3487;SDS011;38546;48.170;11.724;2024-01-15T12:36:54;4.90;;;3.70;;
3487;SDS011;38546;48.170;11.724;2024-01-15T12:39:28;4.50;;;4.10;;
3487;SDS011;38546;48.170;11.724;2024-01-15T12:41:58;6.90;;;3.63;;
3487;SDS011;38546;48.170;11.724;2024-01-15T12:44:29;4.60;;;3.80;;
3487;SDS011;38546;48.170;11.724;2024-01-15T12:47:00;6.37;;;3.90;;
3487;SDS011;38546;48.170;11.724;2024-01-15T12:49:31;3.70;;;3.03;;
3487;SDS011;38546;48.170;11.724;2024-01-15T12:52:02;5.33;;;3.57;;
3487;SDS011;38546;48.170;11.724;2024-01-15T12:54:33;5.80;;;3.47;;
3487;SDS011;38546;48.170;11.724;2024-01-15T12:57:04;6.63;;;3.53;;
3487;SDS011;38546;48.170;11.724;2024-01-15T12:59:35;6.10;;;4.17;;
3487;SDS011;38546;48.170;11.724;2024-01-15T13:02:05;6.87;;;4.20;;
3487;SDS011;38546;48.170;11.724;2024-01-15T13:04:37;6.03;;;3.87;;
3487;SDS011;38546;48.170;11.724;2024-01-15T13:07:08;5.17;;;3.90;;
3487;SDS011;38546;48.170;11.724;2024-01-15T13:09:39;7.10;;;4.30;;
3487;SDS011;38546;48.170;11.724;2024-01-15T13:12:10;5.10;;;4.03;;
3487;SDS011;38546;48.170;11.724;2024-01-15T13:14:41;4.73;;;4.13;;
3487;SDS011;38546;48.170;11.724;2024-01-15T13:17:12;4.60;;;3.70;;
3487;SDS011;38546;48.170;11.724;2024-01-15T13:19:44;6.60;;;4.80;;
3487;SDS011;38546;48.170;11.724;2024-01-15T13:22:15;3.90;;;3.60;;
3487;SDS011;38546;48.170;11.724;2024-01-15T13:24:46;4.87;;;3.87;;
3487;SDS011;38546;48.170;11.724;2024-01-15T13:27:17;5.40;;;4.47;;
3487;SDS011;38546;48.170;11.724;2024-01-15T13:29:47;5.80;;;4.00;;
3487;SDS011;38546;48.170;11.724;2024-01-15T13:32:22;7.70;;;4.37;;
3487;SDS011;38546;48.170;11.724;2024-01-15T13:34:58;5.03;;;4.13;;
3487;SDS011;38546;48.170;11.724;2024-01-15T13:37:29;3.80;;;3.20;;
3487;SDS011;38546;48.170;11.724;2024-01-15T13:40:00;6.63;;;4.17;;
3487;SDS011;38546;48.170;11.724;2024-01-15T13:42:31;6.93;;;4.63;;
3487;SDS011;38546;48.170;11.724;2024-01-15T13:45:02;7.30;;;4.17;;
3487;SDS011;38546;48.170;11.724;2024-01-15T13:47:35;9.57;;;4.50;;
3487;SDS011;38546;48.170;11.724;2024-01-15T13:50:07;5.83;;;4.00;;
3487;SDS011;38546;48.170;11.724;2024-01-15T13:52:39;3.93;;;3.07;;
3487;SDS011;38546;48.170;11.724;2024-01-15T13:55:10;6.17;;;4.10;;
3487;SDS011;38546;48.170;11.724;2024-01-15T13:57:40;7.43;;;4.43;;
3487;SDS011;38546;48.170;11.724;2024-01-15T14:00:12;11.97;;;5.67;;
3487;SDS011;38546;48.170;11.724;2024-01-15T14:02:48;10.97;;;4.60;;
3487;SDS011;38546;48.170;11.724;2024-01-15T14:05:19;9.57;;;5.17;;
3487;SDS011;38546;48.170;11.724;2024-01-15T14:07:50;8.80;;;4.73;;
3487;SDS011;38546;48.170;11.724;2024-01-15T14:10:20;6.93;;;4.73;;
3487;SDS011;38546;48.170;11.724;2024-01-15T14:12:51;5.73;;;4.33;;
3487;SDS011;38546;48.170;11.724;2024-01-15T14:15:22;9.20;;;5.07;;
3487;SDS011;38546;48.170;11.724;2024-01-15T14:17:52;6.00;;;4.80;;
3487;SDS011;38546;48.170;11.724;2024-01-15T14:20:23;8.03;;;4.70;;
3487;SDS011;38546;48.170;11.724;2024-01-15T14:22:54;9.57;;;5.57;;
3487;SDS011;38546;48.170;11.724;2024-01-15T14:25:25;7.07;;;4.63;;
3487;SDS011;38546;48.170;11.724;2024-01-15T14:27:55;10.40;;;5.63;;
3487;SDS011;38546;48.170;11.724;2024-01-15T14:30:26;8.03;;;5.40;;
3487;SDS011;38546;48.170;11.724;2024-01-15T14:32:57;12.23;;;5.57;;
3487;SDS011;38546;48.170;11.724;2024-01-15T14:35:27;11.10;;;6.23;;
3487;SDS011;38546;48.170;11.724;2024-01-15T14:37:58;12.10;;;6.40;;
3487;SDS011;38546;48.170;11.724;2024-01-15T14:40:29;13.83;;;6.80;;
3487;SDS011;38546;48.170;11.724;2024-01-15T14:43:00;9.40;;;5.80;;
3487;SDS011;38546;48.170;11.724;2024-01-15T14:45:30;17.17;;;7.00;;
3487;SDS011;38546;48.170;11.724;2024-01-15T14:48:01;9.73;;;6.00;;
3487;SDS011;38546;48.170;11.724;2024-01-15T14:50:32;8.00;;;4.97;;
3487;SDS011;38546;48.170;11.724;2024-01-15T14:53:03;8.30;;;5.20;;
3487;SDS011;38546;48.170;11.724;2024-01-15T14:55:34;10.57;;;5.07;;
3487;SDS011;38546;48.170;11.724;2024-01-15T14:58:04;8.43;;;4.93;;
3487;SDS011;38546;48.170;11.724;2024-01-15T15:00:35;10.73;;;5.37;;
3487;SDS011;38546;48.170;11.724;2024-01-15T15:03:05;8.90;;;4.90;;
3487;SDS011;38546;48.170;11.724;2024-01-15T15:05:36;8.50;;;5.20;;
3487;SDS011;38546;48.170;11.724;2024-01-15T15:08:07;8.97;;;5.40;;